createdAt,value
2016-11-16T00:00:14.410Z,20
2016-11-16T00:00:31.285Z,19.94
2016-11-16T00:00:48.056Z,19.88
2016-11-16T00:01:04.836Z,19.91
2016-11-16T00:01:21.581Z,19.95
2016-11-16T00:01:38.306Z,19.86
2016-11-16T00:01:55.086Z,19.87
2016-11-16T00:02:11.796Z,19.79
2016-11-16T00:02:28.526Z,19.69
2016-11-16T00:02:45.281Z,19.63
2016-11-16T00:03:02.060Z,19.73
2016-11-16T00:03:18.779Z,19.73
2016-11-16T00:03:35.505Z,19.61
2016-11-16T00:03:52.218Z,19.61
2016-11-16T00:04:09.002Z,19.64
2016-11-16T00:04:25.835Z,19.58
2016-11-16T00:04:42.567Z,19.6
2016-11-16T00:04:59.282Z,19.6
2016-11-16T00:05:15.992Z,19.71
2016-11-16T00:05:32.736Z,19.71
2016-11-16T00:05:49.524Z,19.71
2016-11-16T00:06:06.249Z,19.68
2016-11-16T00:06:23.472Z,19.75
2016-11-16T00:06:40.219Z,19.75
2016-11-16T00:06:56.960Z,19.76
2016-11-16T00:07:13.715Z,19.72
2016-11-16T00:07:30.438Z,19.71
2016-11-16T00:07:47.154Z,19.69
2016-11-16T00:08:03.894Z,19.75
2016-11-16T00:08:20.607Z,19.79
2016-11-16T00:08:37.350Z,19.78
2016-11-16T00:08:54.594Z,19.73
2016-11-16T00:09:11.346Z,19.71
2016-11-16T00:09:28.084Z,19.69
2016-11-16T00:09:44.817Z,19.68
2016-11-16T00:10:01.560Z,19.75
2016-11-16T00:10:18.307Z,19.72
2016-11-16T00:10:35.009Z,19.73
2016-11-16T00:10:51.743Z,19.76
2016-11-16T00:11:08.464Z,19.76
2016-11-16T00:11:25.214Z,19.87
2016-11-16T00:11:41.923Z,19.73
2016-11-16T00:11:58.657Z,19.82
2016-11-16T00:12:15.378Z,19.8
2016-11-16T00:12:32.109Z,19.91
2016-11-16T00:12:48.869Z,19.94
2016-11-16T00:13:05.585Z,19.9
2016-11-16T00:13:22.870Z,19.86
2016-11-16T00:13:40.111Z,19.82
2016-11-16T00:13:56.846Z,19.79
2016-11-16T00:14:13.590Z,19.91
2016-11-16T00:14:30.332Z,19.88
2016-11-16T00:14:47.042Z,19.82
2016-11-16T00:15:03.736Z,19.73
2016-11-16T00:15:20.529Z,19.79
2016-11-16T00:15:37.339Z,19.73
2016-11-16T00:15:54.139Z,19.76
2016-11-16T00:16:10.953Z,19.86
2016-11-16T00:16:27.842Z,19.8
2016-11-16T00:16:44.903Z,19.76
2016-11-16T00:17:01.780Z,19.87
2016-11-16T00:17:19.780Z,19.79
2016-11-16T00:17:36.543Z,19.86
2016-11-16T00:17:53.295Z,19.88
2016-11-16T00:18:10.144Z,19.9
2016-11-16T00:18:26.895Z,19.94
2016-11-16T00:18:43.651Z,19.83
2016-11-16T00:19:00.552Z,19.86
2016-11-16T00:19:17.440Z,19.9
2016-11-16T00:19:34.369Z,19.79
2016-11-16T00:19:51.651Z,19.83
2016-11-16T00:20:08.449Z,19.87
2016-11-16T00:20:25.309Z,19.83
2016-11-16T00:20:42.182Z,19.88
2016-11-16T00:20:59.001Z,19.83
2016-11-16T00:21:15.737Z,19.75
2016-11-16T00:21:32.478Z,19.73
2016-11-16T00:21:49.286Z,19.72
2016-11-16T00:22:06.489Z,19.8
2016-11-16T00:22:23.297Z,19.79
2016-11-16T00:22:40.035Z,19.87
2016-11-16T00:22:56.878Z,19.83
2016-11-16T00:23:13.829Z,19.88
2016-11-16T00:23:30.588Z,19.83
2016-11-16T00:23:47.390Z,19.94
2016-11-16T00:24:04.118Z,19.88
2016-11-16T00:24:20.879Z,19.88
2016-11-16T00:24:38.256Z,19.87
2016-11-16T00:24:55.123Z,19.86
2016-11-16T00:25:12.029Z,19.87
2016-11-16T00:25:28.893Z,19.91
2016-11-16T00:25:45.927Z,19.8
2016-11-16T00:26:02.674Z,19.79
2016-11-16T00:26:19.976Z,19.76
2016-11-16T00:26:36.710Z,19.88
2016-11-16T00:26:53.456Z,19.71
2016-11-16T00:27:10.200Z,19.78
2016-11-16T00:27:26.920Z,19.69
2016-11-16T00:27:43.658Z,19.73
2016-11-16T00:28:00.393Z,19.75
2016-11-16T00:28:17.626Z,19.75
2016-11-16T00:28:34.352Z,19.79
2016-11-16T00:28:51.064Z,19.73
2016-11-16T00:29:07.793Z,19.82
2016-11-16T00:29:24.583Z,19.82
2016-11-16T00:29:41.351Z,19.79
2016-11-16T00:29:58.078Z,19.78
2016-11-16T00:30:14.825Z,19.78
2016-11-16T00:30:31.573Z,19.76
2016-11-16T00:30:48.290Z,19.82
2016-11-16T00:31:05.028Z,19.83
2016-11-16T00:31:21.757Z,19.86
2016-11-16T00:31:38.520Z,19.87
2016-11-16T00:31:55.280Z,19.71
2016-11-16T00:32:11.984Z,19.79
2016-11-16T00:32:28.694Z,19.86
2016-11-16T00:32:45.404Z,19.79
2016-11-16T00:33:02.145Z,19.76
2016-11-16T00:33:18.899Z,19.75
2016-11-16T00:33:35.625Z,19.83
2016-11-16T00:33:52.358Z,19.87
2016-11-16T00:34:09.093Z,19.93
2016-11-16T00:34:25.811Z,19.87
2016-11-16T00:34:42.530Z,19.87
2016-11-16T00:34:59.252Z,19.87
2016-11-16T00:35:15.966Z,19.9
2016-11-16T00:35:32.702Z,19.94
2016-11-16T00:35:49.452Z,19.88
2016-11-16T00:36:06.182Z,19.86
2016-11-16T00:36:22.917Z,19.91
2016-11-16T00:36:39.670Z,19.91
2016-11-16T00:36:56.397Z,19.88
2016-11-16T00:37:13.116Z,19.87
2016-11-16T00:37:29.824Z,19.88
2016-11-16T00:37:47.065Z,19.9
2016-11-16T00:38:03.767Z,19.91
2016-11-16T00:38:20.565Z,19.91
2016-11-16T00:38:37.322Z,19.95
2016-11-16T00:38:54.012Z,19.88
2016-11-16T00:39:10.734Z,19.94
2016-11-16T00:39:27.574Z,19.88
2016-11-16T00:39:44.290Z,19.9
2016-11-16T00:40:01.021Z,19.82
2016-11-16T00:40:17.737Z,19.94
2016-11-16T00:40:34.463Z,19.91
2016-11-16T00:40:51.201Z,19.88
2016-11-16T00:41:07.935Z,19.86
2016-11-16T00:41:24.671Z,19.87
2016-11-16T00:41:41.399Z,19.9
2016-11-16T00:41:58.111Z,19.83
2016-11-16T00:42:14.842Z,19.86
2016-11-16T00:42:31.565Z,19.75
2016-11-16T00:42:48.303Z,19.83
2016-11-16T00:43:05.077Z,19.79
2016-11-16T00:43:21.768Z,19.78
2016-11-16T00:43:38.487Z,19.83
2016-11-16T00:43:55.184Z,19.79
2016-11-16T00:44:11.919Z,19.73
2016-11-16T00:44:29.002Z,19.72
2016-11-16T00:44:45.715Z,19.73
2016-11-16T00:45:02.447Z,19.72
2016-11-16T00:45:19.170Z,19.73
2016-11-16T00:45:35.872Z,19.78
2016-11-16T00:45:52.576Z,19.73
2016-11-16T00:46:09.320Z,19.8
2016-11-16T00:46:26.063Z,19.87
2016-11-16T00:46:42.820Z,19.8
2016-11-16T00:46:59.555Z,19.8
2016-11-16T00:47:16.304Z,19.83
2016-11-16T00:47:33.034Z,19.88
2016-11-16T00:47:49.737Z,19.86
2016-11-16T00:48:06.450Z,19.9
2016-11-16T00:48:23.209Z,19.9
2016-11-16T00:48:39.927Z,19.95
2016-11-16T00:48:56.704Z,19.97
2016-11-16T00:49:13.962Z,19.91
2016-11-16T00:49:30.791Z,19.98
2016-11-16T00:49:47.503Z,19.95
2016-11-16T00:50:04.222Z,19.91
2016-11-16T00:50:20.938Z,19.95
2016-11-16T00:50:37.688Z,19.91
2016-11-16T00:50:54.416Z,20.03
2016-11-16T00:51:11.111Z,19.94
2016-11-16T00:51:27.893Z,20
2016-11-16T00:51:44.607Z,20.01
2016-11-16T00:52:01.329Z,20.01
2016-11-16T00:52:18.009Z,20.01
2016-11-16T00:52:34.770Z,20.09
2016-11-16T00:52:51.522Z,20.05
2016-11-16T00:53:08.290Z,20.06
2016-11-16T00:53:25.013Z,20.09
2016-11-16T00:53:41.742Z,20.03
2016-11-16T00:53:58.475Z,20.08
2016-11-16T00:54:32.066Z,20.08
2016-11-16T00:54:48.814Z,20.05
2016-11-16T00:55:05.743Z,20.03
2016-11-16T00:55:22.464Z,20.05
2016-11-16T00:55:39.198Z,20.05
2016-11-16T00:55:55.892Z,20.08
2016-11-16T00:56:13.125Z,20.09
2016-11-16T00:56:29.828Z,20
2016-11-16T00:56:46.537Z,20
2016-11-16T00:57:03.283Z,20
2016-11-16T00:57:20.013Z,20.05
2016-11-16T00:57:36.727Z,20
2016-11-16T00:57:53.486Z,20.03
2016-11-16T00:58:10.211Z,19.9
2016-11-16T00:58:26.939Z,20.09
2016-11-16T00:58:43.689Z,20.01
2016-11-16T00:59:00.426Z,19.91
2016-11-16T00:59:17.142Z,20.06
2016-11-16T00:59:33.904Z,20.06
2016-11-16T00:59:50.663Z,20.01
2016-11-16T01:00:07.373Z,20.03
2016-11-16T01:00:24.095Z,20.01
2016-11-16T01:00:40.827Z,20.03
2016-11-16T01:00:57.564Z,20.06
2016-11-16T01:01:14.285Z,20.06
2016-11-16T01:01:31.005Z,20.06
2016-11-16T01:01:47.737Z,20.13
2016-11-16T01:02:04.504Z,20.08
2016-11-16T01:02:21.245Z,20.09
2016-11-16T01:02:38.701Z,20.06
2016-11-16T01:02:55.454Z,20.05
2016-11-16T01:03:12.196Z,20.05
2016-11-16T01:03:28.937Z,20.09
2016-11-16T01:03:45.641Z,20.13
2016-11-16T01:04:02.397Z,20.1
2016-11-16T01:04:19.119Z,20.09
2016-11-16T01:04:35.843Z,20.15
2016-11-16T01:04:52.574Z,20.08
2016-11-16T01:05:09.282Z,20.1
2016-11-16T01:05:25.987Z,20.13
2016-11-16T01:05:42.697Z,20.06
2016-11-16T01:05:59.402Z,20.08
2016-11-16T01:06:16.147Z,20.18
2016-11-16T01:06:32.913Z,20.1
2016-11-16T01:06:49.624Z,20.06
2016-11-16T01:07:06.364Z,20.09
2016-11-16T01:07:23.076Z,20.03
2016-11-16T01:07:39.771Z,20.03
2016-11-16T01:07:56.473Z,20.03
2016-11-16T01:08:13.215Z,20.03
2016-11-16T01:08:29.993Z,19.95
2016-11-16T01:08:46.748Z,20.08
2016-11-16T01:09:03.451Z,20.05
2016-11-16T01:09:20.178Z,20.08
2016-11-16T01:09:37.164Z,20.08
2016-11-16T01:09:53.894Z,20.06
2016-11-16T01:10:10.603Z,20.06
2016-11-16T01:10:27.320Z,20.06
2016-11-16T01:10:44.039Z,20
2016-11-16T01:11:00.779Z,20.12
2016-11-16T01:11:17.706Z,20.05
2016-11-16T01:11:34.445Z,20.01
2016-11-16T01:11:51.217Z,20.06
2016-11-16T01:12:07.989Z,20.05
2016-11-16T01:12:25.228Z,20.13
2016-11-16T01:12:42.007Z,20.15
2016-11-16T01:12:58.832Z,20.12
2016-11-16T01:13:15.760Z,20.1
2016-11-16T01:13:32.502Z,20.13
2016-11-16T01:13:49.233Z,20.1
2016-11-16T01:14:05.952Z,20.09
2016-11-16T01:14:22.676Z,20.1
2016-11-16T01:14:39.921Z,20.13
2016-11-16T01:14:56.687Z,20.09
2016-11-16T01:15:13.428Z,20.16
2016-11-16T01:15:30.151Z,20.13
2016-11-16T01:15:46.911Z,20.27
2016-11-16T01:16:03.695Z,20.13
2016-11-16T01:16:21.228Z,20.1
2016-11-16T01:16:37.955Z,20.19
2016-11-16T01:16:54.722Z,20.28
2016-11-16T01:17:11.439Z,20.27
2016-11-16T01:17:28.204Z,20.19
2016-11-16T01:17:45.071Z,20.13
2016-11-16T01:18:01.973Z,20.23
2016-11-16T01:18:18.794Z,20.24
2016-11-16T01:18:37.690Z,20.08
2016-11-16T01:18:54.397Z,20.19
2016-11-16T01:19:11.160Z,20.1
2016-11-16T01:19:27.910Z,20.03
2016-11-16T01:19:44.638Z,20.09
2016-11-16T01:20:01.357Z,20.23
2016-11-16T01:20:18.210Z,20.16
2016-11-16T01:20:34.921Z,20.27
2016-11-16T01:20:51.626Z,20.26
2016-11-16T01:21:08.494Z,20.1
2016-11-16T01:21:25.209Z,20.23
2016-11-16T01:21:41.944Z,20.26
2016-11-16T01:21:58.744Z,20.26
2016-11-16T01:22:15.478Z,20.3
2016-11-16T01:22:32.203Z,20.24
2016-11-16T01:22:48.927Z,20.24
2016-11-16T01:23:05.778Z,20.13
2016-11-16T01:23:37.513Z,20.2
2016-11-16T01:23:54.328Z,20.24
2016-11-16T01:24:11.074Z,20.27
2016-11-16T01:24:27.784Z,20.33
2016-11-16T01:24:44.642Z,20.2
2016-11-16T01:25:01.461Z,20.26
2016-11-16T01:25:18.305Z,20.27
2016-11-16T01:25:35.264Z,20.24
2016-11-16T01:25:52.092Z,20.24
2016-11-16T01:26:09.561Z,20.16
2016-11-16T01:26:26.367Z,20.24
2016-11-16T01:26:43.166Z,20.12
2016-11-16T01:26:59.921Z,20.12
2016-11-16T01:27:17.150Z,20.12
2016-11-16T01:27:33.877Z,20.18
2016-11-16T01:27:51.120Z,20.06
2016-11-16T01:28:07.853Z,20.13
2016-11-16T01:28:24.578Z,20.16
2016-11-16T01:28:41.306Z,20.15
2016-11-16T01:28:58.042Z,20.06
2016-11-16T01:29:14.768Z,20.18
2016-11-16T01:29:31.492Z,20.23
2016-11-16T01:29:48.213Z,20.15
2016-11-16T01:30:04.949Z,20.2
2016-11-16T01:30:21.680Z,20.19
2016-11-16T01:30:38.411Z,20.18
2016-11-16T01:30:55.127Z,20.27
2016-11-16T01:31:11.832Z,20.27
2016-11-16T01:31:28.563Z,20.34
2016-11-16T01:31:45.311Z,20.18
2016-11-16T01:32:02.054Z,20.18
2016-11-16T01:32:18.784Z,20.23
2016-11-16T01:32:35.512Z,20.19
2016-11-16T01:32:52.317Z,20.28
2016-11-16T01:33:09.175Z,20.33
2016-11-16T01:33:25.935Z,20.3
2016-11-16T01:33:42.648Z,20.28
2016-11-16T01:33:59.377Z,20.33
2016-11-16T01:34:30.648Z,20.26
2016-11-16T01:34:47.882Z,20.19
2016-11-16T01:35:04.621Z,20.37
2016-11-16T01:35:21.359Z,20.26
2016-11-16T01:35:38.117Z,20.28
2016-11-16T01:35:54.864Z,20.27
2016-11-16T01:36:11.584Z,20.28
2016-11-16T01:36:28.315Z,20.35
2016-11-16T01:36:45.069Z,20.33
2016-11-16T01:37:01.783Z,20.27
2016-11-16T01:37:18.558Z,20.34
2016-11-16T01:37:35.295Z,20.34
2016-11-16T01:37:52.006Z,20.4
2016-11-16T01:38:08.715Z,20.37
2016-11-16T01:38:25.473Z,20.4
2016-11-16T01:38:42.233Z,20.28
2016-11-16T01:38:58.969Z,20.26
2016-11-16T01:39:15.683Z,20.23
2016-11-16T01:39:32.459Z,20.24
2016-11-16T01:39:49.154Z,20.24
2016-11-16T01:40:05.893Z,20.13
2016-11-16T01:40:23.138Z,20.15
2016-11-16T01:40:39.882Z,20.18
2016-11-16T01:40:56.605Z,20.3
2016-11-16T01:41:13.368Z,20.16
2016-11-16T01:41:30.082Z,20.28
2016-11-16T01:41:46.832Z,20.24
2016-11-16T01:42:03.540Z,20.27
2016-11-16T01:42:20.227Z,20.28
2016-11-16T01:42:36.971Z,20.18
2016-11-16T01:42:54.186Z,20.09
2016-11-16T01:43:10.951Z,20.01
2016-11-16T01:43:27.672Z,19.94
2016-11-16T01:43:44.403Z,20
2016-11-16T01:44:01.116Z,19.9
2016-11-16T01:44:17.853Z,19.97
2016-11-16T01:44:34.700Z,19.91
2016-11-16T01:44:51.443Z,20.05
2016-11-16T01:45:08.185Z,20.08
2016-11-16T01:45:24.912Z,20.03
2016-11-16T01:45:41.628Z,20.09
2016-11-16T01:45:58.353Z,20.05
2016-11-16T01:46:15.086Z,20.06
2016-11-16T01:46:31.810Z,20.09
2016-11-16T01:46:48.620Z,20.09
2016-11-16T01:47:05.324Z,20.08
2016-11-16T01:47:22.040Z,20.03
2016-11-16T01:47:38.766Z,20.09
2016-11-16T01:47:55.483Z,20.1
2016-11-16T01:48:12.214Z,20.15
2016-11-16T01:48:28.979Z,20.09
2016-11-16T01:48:45.696Z,20.08
2016-11-16T01:49:02.392Z,20.08
2016-11-16T01:49:19.121Z,20.09
2016-11-16T01:49:35.848Z,20.09
2016-11-16T01:49:52.608Z,20.15
2016-11-16T01:50:09.319Z,20.16
2016-11-16T01:50:26.067Z,20.12
2016-11-16T01:50:42.783Z,20.26
2016-11-16T01:50:59.495Z,20.1
2016-11-16T01:51:16.253Z,20.05
2016-11-16T01:51:33.048Z,20.1
2016-11-16T01:51:49.801Z,20.12
2016-11-16T01:52:06.529Z,20.09
2016-11-16T01:52:23.240Z,20.05
2016-11-16T01:52:39.985Z,20.09
2016-11-16T01:52:56.746Z,20.05
2016-11-16T01:53:13.519Z,20.15
2016-11-16T01:53:30.268Z,20.24
2016-11-16T01:53:47.028Z,20.13
2016-11-16T01:54:03.730Z,20.13
2016-11-16T01:54:20.441Z,20.05
2016-11-16T01:54:37.292Z,20.13
2016-11-16T01:54:54.028Z,20.08
2016-11-16T01:55:10.780Z,20.09
2016-11-16T01:55:27.504Z,20.13
2016-11-16T01:55:44.250Z,20.1
2016-11-16T01:56:00.998Z,20.1
2016-11-16T01:56:17.710Z,20.12
2016-11-16T01:56:34.464Z,20.23
2016-11-16T01:56:51.243Z,20.18
2016-11-16T01:57:07.962Z,20.13
2016-11-16T01:57:24.763Z,20.16
2016-11-16T01:57:41.566Z,20.24
2016-11-16T01:57:58.297Z,20.18
2016-11-16T01:58:15.054Z,20.2
2016-11-16T01:58:31.853Z,20.19
2016-11-16T01:58:48.617Z,20.27
2016-11-16T01:59:05.319Z,20.15
2016-11-16T01:59:22.059Z,20.23
2016-11-16T01:59:38.884Z,20.26
2016-11-16T01:59:55.631Z,20.16
2016-11-16T02:00:12.337Z,20.13
2016-11-16T02:00:29.046Z,20.19
2016-11-16T02:00:45.798Z,20.28
2016-11-16T02:01:02.556Z,20.27
2016-11-16T02:01:19.273Z,20.12
2016-11-16T02:01:36.077Z,20.16
2016-11-16T02:01:52.801Z,20.1
2016-11-16T02:02:09.515Z,20.15
2016-11-16T02:02:26.288Z,20.26
2016-11-16T02:02:43.054Z,20.2
2016-11-16T02:02:59.794Z,20.16
2016-11-16T02:03:16.522Z,20.1
2016-11-16T02:03:33.224Z,20.15
2016-11-16T02:03:49.994Z,20.13
2016-11-16T02:04:06.745Z,20.16
2016-11-16T02:04:23.999Z,20.12
2016-11-16T02:04:41.343Z,20.1
2016-11-16T02:04:58.134Z,20.19
2016-11-16T02:05:14.846Z,20.3
2016-11-16T02:05:31.574Z,20.24
2016-11-16T02:05:48.857Z,20.31
2016-11-16T02:06:05.591Z,20.26
2016-11-16T02:06:22.374Z,20.12
2016-11-16T02:06:39.076Z,20.1
2016-11-16T02:06:55.833Z,20.15
2016-11-16T02:07:12.564Z,20.19
2016-11-16T02:07:29.262Z,20.19
2016-11-16T02:07:45.970Z,20.06
2016-11-16T02:08:02.672Z,20.09
2016-11-16T02:08:19.389Z,20.09
2016-11-16T02:08:36.095Z,20.12
2016-11-16T02:08:52.829Z,20.12
2016-11-16T02:09:09.561Z,20.2
2016-11-16T02:09:26.306Z,20.13
2016-11-16T02:09:43.030Z,20.2
2016-11-16T02:09:59.741Z,20.19
2016-11-16T02:10:16.528Z,20.15
2016-11-16T02:10:33.271Z,20.27
2016-11-16T02:10:50.491Z,20.15
2016-11-16T02:11:07.247Z,20.15
2016-11-16T02:11:23.962Z,20.23
2016-11-16T02:11:40.742Z,20.16
2016-11-16T02:11:57.874Z,20.15
2016-11-16T02:12:14.618Z,20.09
2016-11-16T02:12:31.345Z,20.08
2016-11-16T02:12:48.151Z,19.94
2016-11-16T02:13:04.900Z,20.03
2016-11-16T02:13:21.607Z,20.09
2016-11-16T02:13:38.345Z,20.08
2016-11-16T02:13:55.052Z,20.1
2016-11-16T02:14:11.793Z,20.08
2016-11-16T02:14:29.544Z,20.06
2016-11-16T02:14:46.354Z,20.08
2016-11-16T02:15:03.061Z,20.09
2016-11-16T02:15:19.827Z,20.01
2016-11-16T02:15:36.524Z,20.05
2016-11-16T02:15:53.267Z,20.12
2016-11-16T02:16:10.009Z,20.16
2016-11-16T02:16:26.720Z,20.1
2016-11-16T02:16:43.455Z,20.1
2016-11-16T02:17:00.175Z,20.15
2016-11-16T02:17:16.910Z,20.1
2016-11-16T02:17:33.663Z,20.15
2016-11-16T02:17:50.385Z,20.13
2016-11-16T02:18:07.108Z,20.13
2016-11-16T02:18:23.841Z,20.08
2016-11-16T02:18:40.566Z,20.16
2016-11-16T02:18:57.385Z,20.1
2016-11-16T02:19:14.091Z,20.12
2016-11-16T02:19:30.813Z,20.16
2016-11-16T02:19:47.519Z,20.1
2016-11-16T02:20:04.505Z,20.18
2016-11-16T02:20:21.290Z,20.26
2016-11-16T02:20:38.008Z,20.15
2016-11-16T02:20:54.712Z,20.18
2016-11-16T02:21:11.501Z,20.19
2016-11-16T02:21:28.314Z,20.27
2016-11-16T02:21:45.029Z,20.27
2016-11-16T02:22:01.756Z,20.3
2016-11-16T02:22:18.489Z,20.27
2016-11-16T02:22:35.201Z,20.27
2016-11-16T02:22:51.917Z,20.3
2016-11-16T02:23:08.641Z,20.3
2016-11-16T02:23:25.379Z,20.24
2016-11-16T02:23:42.117Z,20.28
2016-11-16T02:23:59.375Z,20.28
2016-11-16T02:24:16.096Z,20.26
2016-11-16T02:24:32.811Z,20.37
2016-11-16T02:24:49.625Z,20.33
2016-11-16T02:25:06.858Z,20.19
2016-11-16T02:25:23.595Z,20.18
2016-11-16T02:25:40.277Z,20.16
2016-11-16T02:25:57.001Z,20.12
2016-11-16T02:26:13.738Z,20.13
2016-11-16T02:26:30.481Z,20.01
2016-11-16T02:26:47.228Z,20.08
2016-11-16T02:27:03.953Z,20.1
2016-11-16T02:27:20.670Z,20.01
2016-11-16T02:27:37.429Z,20.03
2016-11-16T02:27:54.160Z,20.06
2016-11-16T02:28:10.874Z,20.06
2016-11-16T02:28:27.608Z,20.13
2016-11-16T02:28:44.341Z,20.05
2016-11-16T02:29:01.053Z,20.09
2016-11-16T02:29:17.768Z,20.09
2016-11-16T02:29:34.470Z,20.15
2016-11-16T02:29:51.355Z,20.12
2016-11-16T02:30:08.085Z,20.12
2016-11-16T02:30:24.817Z,20.06
2016-11-16T02:30:41.529Z,20.06
2016-11-16T02:30:58.238Z,20.06
2016-11-16T02:31:14.971Z,20.01
2016-11-16T02:31:31.669Z,20.01
2016-11-16T02:31:48.385Z,19.91
2016-11-16T02:32:05.106Z,19.95
2016-11-16T02:32:21.847Z,19.93
2016-11-16T02:32:38.548Z,20.01
2016-11-16T02:32:55.253Z,20.03
2016-11-16T02:33:12.008Z,19.88
2016-11-16T02:33:28.736Z,20.01
2016-11-16T02:33:45.434Z,19.93
2016-11-16T02:34:02.166Z,19.91
2016-11-16T02:34:18.879Z,19.95
2016-11-16T02:34:35.630Z,19.82
2016-11-16T02:34:52.344Z,19.87
2016-11-16T02:35:09.033Z,19.97
2016-11-16T02:35:25.740Z,19.94
2016-11-16T02:35:42.441Z,19.93
2016-11-16T02:35:59.196Z,19.9
2016-11-16T02:36:15.914Z,19.98
2016-11-16T02:36:32.636Z,19.97
2016-11-16T02:36:49.397Z,19.97
2016-11-16T02:37:06.108Z,19.97
2016-11-16T02:37:22.848Z,19.97
2016-11-16T02:37:39.554Z,20.13
2016-11-16T02:37:56.260Z,20
2016-11-16T02:38:12.968Z,19.98
2016-11-16T02:38:30.226Z,19.9
2016-11-16T02:38:46.990Z,19.88
2016-11-16T02:39:03.723Z,19.88
2016-11-16T02:39:20.434Z,19.91
2016-11-16T02:39:37.647Z,19.94
2016-11-16T02:39:54.346Z,19.87
2016-11-16T02:40:11.079Z,19.86
2016-11-16T02:40:27.855Z,19.94
2016-11-16T02:40:44.568Z,19.98
2016-11-16T02:41:01.300Z,19.93
2016-11-16T02:41:18.013Z,20.03
2016-11-16T02:41:34.739Z,19.88
2016-11-16T02:41:51.461Z,19.91
2016-11-16T02:42:08.197Z,19.91
2016-11-16T02:42:24.883Z,19.93
2016-11-16T02:42:41.619Z,19.88
2016-11-16T02:42:58.335Z,19.87
2016-11-16T02:43:15.074Z,19.87
2016-11-16T02:43:31.793Z,19.91
2016-11-16T02:43:48.526Z,19.87
2016-11-16T02:44:05.251Z,19.9
2016-11-16T02:44:21.971Z,19.86
2016-11-16T02:44:38.689Z,19.9
2016-11-16T02:44:55.574Z,19.87
2016-11-16T02:45:12.295Z,19.82
2016-11-16T02:45:29.020Z,19.82
2016-11-16T02:45:45.736Z,19.88
2016-11-16T02:46:02.446Z,19.93
2016-11-16T02:46:19.173Z,19.9
2016-11-16T02:46:35.870Z,19.82
2016-11-16T02:46:52.580Z,19.8
2016-11-16T02:47:09.275Z,19.87
2016-11-16T02:47:25.984Z,19.9
2016-11-16T02:47:42.709Z,19.83
2016-11-16T02:47:59.453Z,19.76
2016-11-16T02:48:16.131Z,19.65
2016-11-16T02:48:32.855Z,19.8
2016-11-16T02:48:49.571Z,19.82
2016-11-16T02:49:06.311Z,19.8
2016-11-16T02:49:23.030Z,19.82
2016-11-16T02:49:39.735Z,19.8
2016-11-16T02:49:56.462Z,19.73
2016-11-16T02:50:13.161Z,19.75
2016-11-16T02:50:29.885Z,19.88
2016-11-16T02:50:46.601Z,19.88
2016-11-16T02:51:03.319Z,19.82
2016-11-16T02:51:20.029Z,19.83
2016-11-16T02:51:36.750Z,19.72
2016-11-16T02:51:53.512Z,19.71
2016-11-16T02:52:10.244Z,19.83
2016-11-16T02:52:26.986Z,19.69
2016-11-16T02:52:43.685Z,19.75
2016-11-16T02:53:00.403Z,19.8
2016-11-16T02:53:17.113Z,19.87
2016-11-16T02:53:33.862Z,19.87
2016-11-16T02:53:50.584Z,19.87
2016-11-16T02:54:07.362Z,19.95
2016-11-16T02:54:24.622Z,19.91
2016-11-16T02:54:41.349Z,19.94
2016-11-16T02:54:58.161Z,19.91
2016-11-16T02:55:14.894Z,19.88
2016-11-16T02:55:31.618Z,19.83
2016-11-16T02:55:48.330Z,19.9
2016-11-16T02:56:05.038Z,19.93
2016-11-16T02:56:21.739Z,19.91
2016-11-16T02:56:38.451Z,19.91
2016-11-16T02:56:55.186Z,20.01
2016-11-16T02:57:11.895Z,19.94
2016-11-16T02:57:28.616Z,19.94
2016-11-16T02:57:45.326Z,19.97
2016-11-16T02:58:02.022Z,20
2016-11-16T02:58:18.738Z,19.88
2016-11-16T02:58:35.464Z,20
2016-11-16T02:58:52.179Z,19.98
2016-11-16T02:59:08.921Z,20.12
2016-11-16T02:59:25.657Z,20.05
2016-11-16T02:59:42.355Z,20.05
2016-11-16T02:59:59.184Z,19.93
2016-11-16T03:00:15.910Z,19.94
2016-11-16T03:00:33.527Z,19.91
2016-11-16T03:00:51.092Z,19.9
2016-11-16T03:01:22.293Z,19.83
2016-11-16T03:01:39.026Z,19.97
2016-11-16T03:01:55.729Z,19.95
2016-11-16T03:02:12.448Z,19.87
2016-11-16T03:02:29.171Z,19.86
2016-11-16T03:02:45.880Z,19.9
2016-11-16T03:03:02.613Z,19.88
2016-11-16T03:03:19.334Z,19.88
2016-11-16T03:03:36.058Z,19.97
2016-11-16T03:03:52.790Z,19.91
2016-11-16T03:04:09.561Z,19.82
2016-11-16T03:04:26.279Z,19.86
2016-11-16T03:04:43.035Z,19.82
2016-11-16T03:04:59.768Z,19.71
2016-11-16T03:05:16.483Z,19.73
2016-11-16T03:05:33.199Z,19.75
2016-11-16T03:05:49.925Z,19.76
2016-11-16T03:06:06.647Z,19.76
2016-11-16T03:06:23.356Z,19.87
2016-11-16T03:06:40.089Z,19.83
2016-11-16T03:06:56.826Z,19.79
2016-11-16T03:07:13.562Z,19.82
2016-11-16T03:07:30.252Z,19.86
2016-11-16T03:07:46.980Z,19.79
2016-11-16T03:08:03.697Z,19.82
2016-11-16T03:08:20.413Z,19.72
2016-11-16T03:08:37.127Z,19.76
2016-11-16T03:08:53.834Z,19.73
2016-11-16T03:09:10.560Z,19.76
2016-11-16T03:09:27.298Z,19.8
2016-11-16T03:09:44.011Z,19.71
2016-11-16T03:10:00.768Z,19.8
2016-11-16T03:10:17.487Z,19.8
2016-11-16T03:10:34.208Z,19.82
2016-11-16T03:10:50.939Z,19.91
2016-11-16T03:11:07.656Z,19.86
2016-11-16T03:11:24.393Z,19.93
2016-11-16T03:11:41.143Z,19.97
2016-11-16T03:11:57.911Z,19.9
2016-11-16T03:12:14.661Z,19.91
2016-11-16T03:12:31.409Z,19.95
2016-11-16T03:12:48.124Z,19.95
2016-11-16T03:13:04.861Z,20.03
2016-11-16T03:13:21.969Z,20.03
2016-11-16T03:13:38.838Z,19.9
2016-11-16T03:13:56.131Z,20.01
2016-11-16T03:14:12.853Z,19.91
2016-11-16T03:14:29.597Z,19.87
2016-11-16T03:14:46.318Z,19.8
2016-11-16T03:15:03.130Z,19.87
2016-11-16T03:15:19.866Z,19.87
2016-11-16T03:15:36.628Z,19.86
2016-11-16T03:15:53.344Z,19.88
2016-11-16T03:16:10.105Z,19.86
2016-11-16T03:16:26.824Z,19.9
2016-11-16T03:16:43.573Z,19.79
2016-11-16T03:17:00.300Z,19.82
2016-11-16T03:17:17.538Z,19.8
2016-11-16T03:17:34.259Z,19.73
2016-11-16T03:17:50.994Z,19.82
2016-11-16T03:18:07.732Z,19.75
2016-11-16T03:18:24.487Z,19.72
2016-11-16T03:18:41.219Z,19.78
2016-11-16T03:18:57.936Z,19.78
2016-11-16T03:19:14.634Z,19.72
2016-11-16T03:19:31.378Z,19.86
2016-11-16T03:19:48.097Z,19.76
2016-11-16T03:20:04.806Z,19.69
2016-11-16T03:20:21.524Z,19.73
2016-11-16T03:20:38.222Z,19.83
2016-11-16T03:20:54.933Z,19.82
2016-11-16T03:21:11.681Z,19.8
2016-11-16T03:21:28.437Z,19.83
2016-11-16T03:21:45.149Z,19.71
2016-11-16T03:22:01.894Z,19.82
2016-11-16T03:22:18.617Z,19.87
2016-11-16T03:22:35.384Z,19.88
2016-11-16T03:22:52.113Z,19.88
2016-11-16T03:23:08.827Z,19.8
2016-11-16T03:23:25.536Z,19.88
2016-11-16T03:23:42.232Z,19.8
2016-11-16T03:23:58.958Z,19.75
2016-11-16T03:24:15.688Z,19.72
2016-11-16T03:24:32.402Z,19.83
2016-11-16T03:24:49.131Z,19.76
2016-11-16T03:25:05.964Z,19.76
2016-11-16T03:25:22.693Z,19.88
2016-11-16T03:25:39.450Z,19.79
2016-11-16T03:25:56.176Z,19.75
2016-11-16T03:26:12.901Z,19.78
2016-11-16T03:26:29.618Z,19.76
2016-11-16T03:26:46.357Z,19.76
2016-11-16T03:27:03.059Z,19.72
2016-11-16T03:27:19.768Z,19.64
2016-11-16T03:27:36.470Z,19.64
2016-11-16T03:27:53.167Z,19.61
2016-11-16T03:28:09.867Z,19.61
2016-11-16T03:28:26.582Z,19.71
2016-11-16T03:28:43.291Z,19.6
2016-11-16T03:29:00.053Z,19.63
2016-11-16T03:29:16.772Z,19.64
2016-11-16T03:29:33.518Z,19.64
2016-11-16T03:29:50.288Z,19.64
2016-11-16T03:30:07.671Z,19.63
2016-11-16T03:30:24.398Z,19.68
2016-11-16T03:30:41.143Z,19.73
2016-11-16T03:30:57.888Z,19.61
2016-11-16T03:31:15.152Z,19.63
2016-11-16T03:31:32.378Z,19.68
2016-11-16T03:31:49.068Z,19.73
2016-11-16T03:32:05.811Z,19.68
2016-11-16T03:32:22.511Z,19.78
2016-11-16T03:32:39.237Z,19.75
2016-11-16T03:32:55.960Z,19.69
2016-11-16T03:33:12.697Z,19.72
2016-11-16T03:33:29.432Z,19.71
2016-11-16T03:33:46.174Z,19.73
2016-11-16T03:34:02.898Z,19.76
2016-11-16T03:34:19.611Z,19.65
2016-11-16T03:34:36.329Z,19.65
2016-11-16T03:34:53.058Z,19.79
2016-11-16T03:35:09.806Z,19.72
2016-11-16T03:35:26.555Z,19.71
2016-11-16T03:35:43.287Z,19.76
2016-11-16T03:35:59.978Z,19.68
2016-11-16T03:36:16.698Z,19.71
2016-11-16T03:36:33.445Z,19.63
2016-11-16T03:36:50.168Z,19.55
2016-11-16T03:37:06.896Z,19.57
2016-11-16T03:37:23.625Z,19.58
2016-11-16T03:37:40.333Z,19.57
2016-11-16T03:37:57.072Z,19.55
2016-11-16T03:38:13.816Z,19.54